Time;durP1;ratioP1;P1;durP2;ratioP2;P2;SDS_P1;SDS_P2;PMS_P1;PMS_P2;Temp;Humidity;BMP_temperature;BMP_pressure;BME280_temperature;BME280_humidity;BME280_pressure;Samples;Min_cycle;Max_cycle;Signal;HPM_P1;HPM_P2
2022/01/20 00:00:44;;;;;;;8.43;1.65;;;;;;;;;;5031190;28;20033;-61
2022/01/20 00:03:16;;;;;;;5.63;1.65;;;;;;;;;;5030627;28;20052;-73
2022/01/20 00:27:20;;;;;;;6.90;2.17;;;;;;;;;;5033124;28;20040;-59
2022/01/20 00:30:28;;;;;;;13.90;2.53;;;;;;;;;;5033249;28;20030;-63
2022/01/20 00:32:56;;;;;;;;;;;;;;;;;;5021183;28;20044;-56
2022/01/20 00:35:26;;;;;;;6.93;1.55;;;;;;;;;;5025840;28;19968;-61
2022/01/20 00:37:52;;;;;;;10.23;1.88;;;;;;;;;;5032823;28;20170;-56
2022/01/20 00:40:17;;;;;;;15.35;2.78;;;;;;;;;;5032611;28;20041;-55
2022/01/20 00:42:43;;;;;;;10.50;1.95;;;;;;;;;;5031344;28;20099;-55
2022/01/20 00:45:09;;;;;;;16.55;1.95;;;;;;;;;;5032658;28;20112;-64
2022/01/20 00:47:37;;;;;;;12.52;2.30;;;;;;;;;;5031421;28;20041;-64
2022/01/20 00:50:04;;;;;;;7.68;1.67;;;;;;;;;;5030515;28;20543;-60
2022/01/20 00:52:29;;;;;;;9.00;2.40;;;;;;;;;;5030822;28;20488;-60
2022/01/20 00:54:55;;;;;;;14.13;3.08;;;;;;;;;;5031636;28;20025;-67
2022/01/20 00:57:20;;;;;;;10.80;1.95;;;;;;;;;;5032365;28;20174;-68
2022/01/20 00:59:46;;;;;;;8.95;2.08;;;;;;;;;;5021883;28;20037;-63
2022/01/20 01:02:11;;;;;;;15.15;2.05;;;;;;;;;;5032093;28;20021;-67
2022/01/20 01:04:39;;;;;;;4.47;1.70;;;;;;;;;;5032585;28;20013;-63
2022/01/20 01:07:37;;;;;;;20.35;2.63;;;;;;;;;;5031238;28;20159;-58
2022/01/20 01:10:04;;;;;;;11.63;3.05;;;;;;;;;;5032159;28;20048;-59
2022/01/20 01:12:38;;;;;;;8.95;2.40;;;;;;;;;;5032299;28;20029;-60
2022/01/20 01:15:10;;;;;;;16.23;2.00;;;;;;;;;;5031728;28;20021;-56
2022/01/20 01:20:22;;;;;;;15.85;2.58;;;;;;;;;;5032349;28;20515;-56
2022/01/20 01:22:48;;;;;;;15.55;3.63;;;;;;;;;;5032210;28;20431;-62
2022/01/20 01:25:14;;;;;;;16.38;3.97;;;;;;;;;;5036514;28;20030;-57
2022/01/20 01:27:42;;;;;;;19.77;3.83;;;;;;;;;;5023774;28;20383;-61
2022/01/20 01:30:26;;;;;;;17.98;3.45;;;;;;;;;;5028239;28;20036;-59
2022/01/20 01:32:54;;;;;;;11.10;2.08;;;;;;;;;;5027060;28;20167;-57
2022/01/20 01:35:22;;;;;;;14.73;3.85;;;;;;;;;;5024365;28;20021;-61
2022/01/20 01:40:26;;;;;;;18.73;3.97;;;;;;;;;;5035998;28;20144;-65
2022/01/20 01:42:53;;;;;;;23.42;9.20;;;;;;;;;;5033158;28;20535;-56
2022/01/20 01:45:26;;;;;;;18.85;5.50;;;;;;;;;;5035609;28;20036;-60
2022/01/20 01:47:52;;;;;;;10.50;2.47;;;;;;;;;;5035697;28;20018;-58
2022/01/20 01:50:19;;;;;;;10.40;2.63;;;;;;;;;;5030009;28;20358;-67
2022/01/20 01:52:44;;;;;;;20.15;5.03;;;;;;;;;;5034829;28;20029;-62
2022/01/20 01:55:10;;;;;;;16.85;2.45;;;;;;;;;;5035681;28;20033;-58
2022/01/20 01:57:36;;;;;;;13.07;3.20;;;;;;;;;;5035445;28;20499;-59
2022/01/20 02:00:06;;;;;;;9.88;3.03;;;;;;;;;;5035229;28;20034;-55
2022/01/20 02:02:31;;;;;;;11.15;2.80;;;;;;;;;;5034816;28;20028;-65
2022/01/20 02:04:57;;;;;;;13.48;4.10;;;;;;;;;;5033030;28;20400;-55
2022/01/20 02:18:43;;;;;;;14.75;3.17;;;;;;;;;;5034776;28;20031;-63
2022/01/20 02:21:09;;;;;;;11.90;2.30;;;;;;;;;;5024331;28;20037;-64
2022/01/20 02:23:34;;;;;;;9.00;3.22;;;;;;;;;;5035370;28;20100;-54
2022/01/20 02:26:00;;;;;;;16.23;3.25;;;;;;;;;;5027062;28;20124;-56
2022/01/20 02:28:27;;;;;;;23.13;5.68;;;;;;;;;;5026280;28;20550;-55
2022/01/20 02:30:53;;;;;;;13.90;3.78;;;;;;;;;;5024488;28;20457;-55
2022/01/20 02:33:21;;;;;;;11.43;3.15;;;;;;;;;;5021117;28;20042;-53
2022/01/20 02:36:13;;;;;;;16.45;3.15;;;;;;;;;;5019862;28;20024;-65
2022/01/20 02:38:44;;;;;;;27.90;4.82;;;;;;;;;;5007960;28;20029;-54
2022/01/20 02:46:39;;;;;;;7.40;2.20;;;;;;;;;;5025777;28;20232;-52
2022/01/20 02:49:07;;;;;;;8.02;2.33;;;;;;;;;;5026894;28;20025;-55
2022/01/20 02:51:34;;;;;;;16.02;3.33;;;;;;;;;;5025040;28;20021;-62
2022/01/20 02:53:59;;;;;;;13.65;3.33;;;;;;;;;;5024424;28;20026;-64
2022/01/20 02:56:24;;;;;;;11.32;2.70;;;;;;;;;;5024037;28;20385;-57
2022/01/20 02:58:50;;;;;;;13.32;2.47;;;;;;;;;;5026541;28;20025;-56
2022/01/20 03:01:16;;;;;;;8.98;2.83;;;;;;;;;;5029012;28;20026;-66
2022/01/20 03:03:41;;;;;;;29.83;5.65;;;;;;;;;;5027810;28;20030;-52
2022/01/20 03:06:07;;;;;;;35.38;7.43;;;;;;;;;;5029617;28;20033;-65
2022/01/20 03:08:34;;;;;;;13.30;3.83;;;;;;;;;;5024189;28;20045;-57
2022/01/20 03:10:59;;;;;;;22.23;4.32;;;;;;;;;;5027108;28;20022;-52
2022/01/20 03:13:25;;;;;;;15.25;3.58;;;;;;;;;;5024129;28;20080;-62
2022/01/20 03:15:51;;;;;;;10.10;2.38;;;;;;;;;;5025315;28;20076;-56
2022/01/20 03:18:16;;;;;;;12.32;3.05;;;;;;;;;;5027150;28;20064;-57
2022/01/20 03:20:42;;;;;;;17.27;2.47;;;;;;;;;;5024343;28;20061;-65
2022/01/20 03:23:07;;;;;;;4.43;1.13;;;;;;;;;;5027569;28;20028;-57
2022/01/20 03:25:33;;;;;;;9.43;2.83;;;;;;;;;;5026982;28;20523;-67
2022/01/20 03:27:59;;;;;;;3.10;0.98;;;;;;;;;;5025808;28;20030;-55
2022/01/20 03:30:26;;;;;;;9.07;3.70;;;;;;;;;;5025940;28;20026;-58
2022/01/20 03:32:52;;;;;;;7.35;2.13;;;;;;;;;;5025631;28;20105;-62
2022/01/20 03:35:18;;;;;;;2.90;1.30;;;;;;;;;;5025132;28;20117;-60
2022/01/20 03:37:43;;;;;;;4.15;1.40;;;;;;;;;;5024434;28;20033;-60
2022/01/20 03:40:10;;;;;;;5.68;1.42;;;;;;;;;;5029152;28;20388;-59
2022/01/20 03:42:36;;;;;;;6.85;1.80;;;;;;;;;;5021399;28;20787;-55
2022/01/20 03:45:03;;;;;;;8.88;1.45;;;;;;;;;;5024545;28;20026;-60
2022/01/20 03:47:29;;;;;;;11.07;3.03;;;;;;;;;;5023551;28;20018;-55
2022/01/20 03:52:27;;;;;;;9.77;2.25;;;;;;;;;;5025815;28;20030;-61
2022/01/20 03:54:53;;;;;;;7.93;2.17;;;;;;;;;;5024341;28;20022;-58
2022/01/20 03:57:19;;;;;;;5.97;1.65;;;;;;;;;;5024626;28;20033;-62
2022/01/20 03:59:45;;;;;;;6.63;1.30;;;;;;;;;;5025941;28;20616;-57
2022/01/20 04:02:10;;;;;;;12.65;2.58;;;;;;;;;;5024154;28;20029;-60
2022/01/20 04:04:36;;;;;;;8.85;1.45;;;;;;;;;;5024541;28;20021;-66
2022/01/20 04:07:03;;;;;;;13.93;1.98;;;;;;;;;;5023760;28;20120;-59
2022/01/20 04:09:28;;;;;;;6.55;1.40;;;;;;;;;;5026456;28;20563;-61
2022/01/20 04:11:54;;;;;;;6.75;1.83;;;;;;;;;;5032562;28;20109;-66
2022/01/20 04:14:23;;;;;;;23.88;2.72;;;;;;;;;;5032565;28;20079;-59
2022/01/20 04:19:18;;;;;;;12.95;2.67;;;;;;;;;;5032343;28;20029;-62
2022/01/20 04:21:44;;;;;;;6.55;1.55;;;;;;;;;;5032843;28;20035;-58
2022/01/20 04:24:11;;;;;;;8.32;2.38;;;;;;;;;;5031520;28;20029;-58
2022/01/20 04:26:38;;;;;;;6.95;1.42;;;;;;;;;;5032307;28;20034;-57
2022/01/20 04:29:05;;;;;;;4.22;1.15;;;;;;;;;;5032131;28;20029;-56
2022/01/20 04:31:32;;;;;;;10.18;1.85;;;;;;;;;;5032229;28;20032;-63
2022/01/20 04:33:58;;;;;;;8.52;2.10;;;;;;;;;;5032088;28;20037;-56
2022/01/20 04:36:30;;;;;;;13.55;2.72;;;;;;;;;;5032393;28;20032;-57
2022/01/20 04:38:56;;;;;;;8.13;2.53;;;;;;;;;;5031885;28;20105;-64
2022/01/20 04:41:23;;;;;;;15.75;3.00;;;;;;;;;;5031955;28;20129;-62
2022/01/20 04:43:49;;;;;;;17.13;4.50;;;;;;;;;;5031716;28;20021;-59
2022/01/20 04:46:30;;;;;;;24.63;5.82;;;;;;;;;;5032035;28;20028;-64
2022/01/20 04:57:16;;;;;;;6.55;1.98;;;;;;;;;;5031510;28;20036;-56
2022/01/20 04:59:44;;;;;;;10.48;1.67;;;;;;;;;;5031546;28;20033;-58
2022/01/20 05:02:09;;;;;;;10.27;1.33;;;;;;;;;;5031122;28;20512;-63
2022/01/20 05:04:35;;;;;;;6.65;1.30;;;;;;;;;;5031542;28;20025;-54
2022/01/20 05:07:01;;;;;;;5.50;1.70;;;;;;;;;;5028492;28;20025;-63
2022/01/20 05:09:27;;;;;;;4.78;1.08;;;;;;;;;;5021705;28;20133;-64
2022/01/20 05:12:02;;;;;;;5.82;1.08;;;;;;;;;;5028813;28;20029;-64
2022/01/20 05:14:28;;;;;;;8.10;1.70;;;;;;;;;;5021247;28;20096;-67
2022/01/20 05:16:55;;;;;;;9.85;2.40;;;;;;;;;;5031745;28;20022;-60
2022/01/20 05:19:25;;;;;;;6.05;1.35;;;;;;;;;;5031146;28;20408;-62
2022/01/20 05:21:51;;;;;;;7.65;1.67;;;;;;;;;;5031393;28;20040;-63
2022/01/20 05:24:16;;;;;;;5.82;1.50;;;;;;;;;;5031610;28;20033;-62
2022/01/20 05:26:42;;;;;;;5.25;1.23;;;;;;;;;;5031693;28;20026;-61
2022/01/20 05:29:07;;;;;;;2.60;1.15;;;;;;;;;;5031223;28;20531;-61
2022/01/20 05:31:33;;;;;;;4.53;1.67;;;;;;;;;;5031448;28;20029;-64
2022/01/20 05:33:58;;;;;;;3.00;1.02;;;;;;;;;;5031456;28;20383;-54
2022/01/20 05:36:24;;;;;;;2.95;0.88;;;;;;;;;;5031174;28;20112;-56
2022/01/20 05:38:50;;;;;;;4.78;1.02;;;;;;;;;;5031304;28;20485;-55
2022/01/20 05:41:15;;;;;;;2.30;0.90;;;;;;;;;;5031240;28;20116;-65
2022/01/20 05:43:41;;;;;;;4.30;1.02;;;;;;;;;;5031019;28;20120;-65
2022/01/20 05:46:06;;;;;;;2.85;1.10;;;;;;;;;;5031297;28;20400;-63
2022/01/20 05:48:34;;;;;;;10.80;1.77;;;;;;;;;;5031331;28;20574;-57
2022/01/20 05:51:00;;;;;;;3.13;1.45;;;;;;;;;;5031165;28;20027;-56
2022/01/20 05:53:26;;;;;;;2.53;1.05;;;;;;;;;;5031285;28;20033;-66
2022/01/20 05:55:52;;;;;;;5.47;1.25;;;;;;;;;;5031308;28;20032;-54
2022/01/20 05:58:19;;;;;;;5.38;1.13;;;;;;;;;;5031054;28;20038;-54
2022/01/20 06:00:46;;;;;;;2.50;0.77;;;;;;;;;;5030804;28;20029;-60
2022/01/20 06:05:56;;;;;;;1.73;1.00;;;;;;;;;;5019946;28;20389;-61
2022/01/20 06:08:22;;;;;;;5.13;0.70;;;;;;;;;;5030589;28;20046;-64
2022/01/20 06:10:47;;;;;;;3.92;1.02;;;;;;;;;;5025000;28;20018;-53
2022/01/20 06:13:13;;;;;;;3.72;0.93;;;;;;;;;;5034567;28;20068;-61
2022/01/20 06:15:39;;;;;;;1.00;0.73;;;;;;;;;;5034607;28;20384;-57
2022/01/20 06:18:04;;;;;;;4.15;0.90;;;;;;;;;;5034166;28;20025;-66
2022/01/20 06:20:31;;;;;;;1.90;0.60;;;;;;;;;;5034354;28;20495;-65
2022/01/20 06:22:56;;;;;;;1.65;0.70;;;;;;;;;;5034445;28;20116;-59
2022/01/20 06:25:22;;;;;;;0.70;0.68;;;;;;;;;;5034538;28;20104;-65
2022/01/20 06:27:48;;;;;;;0.75;0.65;;;;;;;;;;5034408;28;20080;-54
2022/01/20 06:30:14;;;;;;;4.18;0.98;;;;;;;;;;5034471;28;20353;-56
2022/01/20 06:32:39;;;;;;;6.95;1.30;;;;;;;;;;5034211;28;20026;-65
2022/01/20 06:35:05;;;;;;;4.10;0.88;;;;;;;;;;5034532;28;20030;-54
2022/01/20 06:37:31;;;;;;;5.30;1.20;;;;;;;;;;5034226;28;20046;-56
2022/01/20 06:39:56;;;;;;;8.32;1.00;;;;;;;;;;5034108;28;20029;-54
2022/01/20 06:42:22;;;;;;;2.20;0.80;;;;;;;;;;5034116;28;20464;-65
2022/01/20 06:44:47;;;;;;;4.45;1.17;;;;;;;;;;5034081;28;20030;-67
2022/01/20 06:47:13;;;;;;;0.70;0.60;;;;;;;;;;5033985;28;20040;-58
2022/01/20 06:49:39;;;;;;;4.60;0.90;;;;;;;;;;5034099;28;20029;-58
2022/01/20 06:52:05;;;;;;;1.85;1.02;;;;;;;;;;5033899;28;20017;-55
2022/01/20 06:54:30;;;;;;;9.00;1.10;;;;;;;;;;5033877;28;20071;-56
2022/01/20 06:56:56;;;;;;;4.70;1.63;;;;;;;;;;5032771;28;20030;-61
2022/01/20 06:59:21;;;;;;;2.65;0.88;;;;;;;;;;5029385;28;20057;-59
2022/01/20 07:01:48;;;;;;;6.72;1.00;;;;;;;;;;5017818;28;20032;-61
2022/01/20 07:04:15;;;;;;;5.75;0.95;;;;;;;;;;5031309;28;20067;-55
2022/01/20 07:06:41;;;;;;;3.75;2.10;;;;;;;;;;5029308;28;20025;-56
2022/01/20 07:09:11;;;;;;;6.45;2.80;;;;;;;;;;5032452;28;20064;-57
2022/01/20 07:11:39;;;;;;;5.35;2.03;;;;;;;;;;5033602;28;20028;-56
2022/01/20 07:14:05;;;;;;;8.90;2.78;;;;;;;;;;5027733;28;20030;-61
2022/01/20 07:16:31;;;;;;;12.05;5.07;;;;;;;;;;5033547;28;20108;-58
2022/01/20 07:18:57;;;;;;;3.78;1.42;;;;;;;;;;5032838;28;20179;-55
2022/01/20 07:21:23;;;;;;;2.72;2.25;;;;;;;;;;5011842;28;20025;-61
2022/01/20 07:23:49;;;;;;;4.90;1.17;;;;;;;;;;5033146;28;20456;-53
2022/01/20 07:26:14;;;;;;;6.20;2.10;;;;;;;;;;5033439;28;20112;-55
2022/01/20 07:28:40;;;;;;;2.45;1.02;;;;;;;;;;5033287;28;20047;-60
2022/01/20 07:31:07;;;;;;;2.58;0.95;;;;;;;;;;5032856;28;20480;-55
2022/01/20 07:33:32;;;;;;;2.28;1.00;;;;;;;;;;5032321;28;20041;-58
2022/01/20 07:35:58;;;;;;;5.32;1.30;;;;;;;;;;5032776;28;20032;-59
2022/01/20 07:38:23;;;;;;;8.80;2.22;;;;;;;;;;5033180;28;20104;-56
2022/01/20 07:40:49;;;;;;;3.78;1.38;;;;;;;;;;5032885;28;20029;-53
2022/01/20 07:43:15;;;;;;;3.72;0.80;;;;;;;;;;5032199;28;20531;-64
2022/01/20 07:45:40;;;;;;;3.78;1.58;;;;;;;;;;5032095;28;20026;-66
2022/01/20 07:48:06;;;;;;;7.45;1.63;;;;;;;;;;5025327;28;20080;-67
2022/01/20 07:50:32;;;;;;;4.82;0.98;;;;;;;;;;5031513;28;20076;-60
2022/01/20 07:52:57;;;;;;;6.05;3.33;;;;;;;;;;5024957;28;20095;-58
2022/01/20 07:55:23;;;;;;;14.02;5.85;;;;;;;;;;5032681;28;20468;-54
2022/01/20 07:57:48;;;;;;;15.77;6.70;;;;;;;;;;5032920;28;20365;-66
2022/01/20 08:00:14;;;;;;;20.75;8.38;;;;;;;;;;5031002;28;20040;-61
2022/01/20 08:02:39;;;;;;;67.25;45.97;;;;;;;;;;5018043;28;20048;-59
2022/01/20 08:05:05;;;;;;;17.13;11.30;;;;;;;;;;5023266;28;24048;-64
2022/01/20 08:07:31;;;;;;;6.57;3.45;;;;;;;;;;5022340;28;20034;-61
2022/01/20 08:09:58;;;;;;;4.07;2.03;;;;;;;;;;5021049;28;20061;-59
2022/01/20 08:12:28;;;;;;;19.17;5.88;;;;;;;;;;5022253;28;20472;-59
2022/01/20 08:14:54;;;;;;;73.70;29.52;;;;;;;;;;5023992;28;20089;-54
2022/01/20 08:17:20;;;;;;;13.10;5.47;;;;;;;;;;5022099;28;20033;-65
2022/01/20 08:19:46;;;;;;;10.48;3.17;;;;;;;;;;5019567;28;20030;-53
2022/01/20 08:22:11;;;;;;;6.30;3.65;;;;;;;;;;5019890;28;20469;-54
2022/01/20 08:24:37;;;;;;;7.53;2.67;;;;;;;;;;5019663;28;20032;-53
2022/01/20 08:27:03;;;;;;;4.88;2.05;;;;;;;;;;5018986;28;20033;-62
2022/01/20 08:29:28;;;;;;;10.20;3.10;;;;;;;;;;5020257;28;20032;-64
2022/01/20 08:31:54;;;;;;;11.75;3.58;;;;;;;;;;5021095;28;20030;-61
2022/01/20 08:34:19;;;;;;;13.07;3.85;;;;;;;;;;5018778;28;20026;-57
2022/01/20 08:36:46;;;;;;;13.65;4.28;;;;;;;;;;5022450;28;20438;-68
2022/01/20 08:42:07;;;;;;;23.98;7.50;;;;;;;;;;4994490;28;20592;-54
2022/01/20 08:44:33;;;;;;;13.32;5.18;;;;;;;;;;5022210;28;20096;-57
2022/01/20 08:47:01;;;;;;;5.63;2.30;;;;;;;;;;5019619;28;20048;-65
2022/01/20 08:49:27;;;;;;;12.98;3.40;;;;;;;;;;5024167;28;20096;-59
2022/01/20 08:51:52;;;;;;;11.15;3.38;;;;;;;;;;5023403;28;20029;-57
2022/01/20 08:54:19;;;;;;;21.02;7.85;;;;;;;;;;5022851;28;20361;-55
2022/01/20 08:56:45;;;;;;;24.30;5.57;;;;;;;;;;5021591;28;20123;-66
2022/01/20 08:59:12;;;;;;;16.23;8.88;;;;;;;;;;5020357;28;20435;-55
2022/01/20 09:01:40;;;;;;;37.53;17.27;;;;;;;;;;5020369;28;20036;-67
2022/01/20 09:04:06;;;;;;;9.85;5.20;;;;;;;;;;5020879;28;20389;-60
2022/01/20 09:06:32;;;;;;;6.88;3.75;;;;;;;;;;5018255;28;20038;-56
2022/01/20 09:08:58;;;;;;;7.05;2.70;;;;;;;;;;5020192;28;20045;-62
2022/01/20 09:11:30;;;;;;;8.45;2.65;;;;;;;;;;5021944;28;20029;-58
2022/01/20 09:16:39;;;;;;;10.05;2.20;;;;;;;;;;5017502;28;20096;-55
2022/01/20 09:19:05;;;;;;;15.10;2.80;;;;;;;;;;5023189;28;20453;-56
2022/01/20 09:21:30;;;;;;;11.45;2.20;;;;;;;;;;5016946;28;20033;-58
2022/01/20 09:23:56;;;;;;;4.72;1.77;;;;;;;;;;5025657;28;20456;-65
2022/01/20 09:26:23;;;;;;;9.52;2.25;;;;;;;;;;5018055;28;20018;-64
2022/01/20 09:28:49;;;;;;;16.95;4.25;;;;;;;;;;5022705;28;20534;-53
2022/01/20 09:31:18;;;;;;;11.23;4.22;;;;;;;;;;5021763;28;20021;-67
2022/01/20 09:33:44;;;;;;;9.90;3.60;;;;;;;;;;5019828;28;20026;-57
2022/01/20 09:36:12;;;;;;;15.57;7.32;;;;;;;;;;5024574;28;20025;-67
2022/01/20 09:38:38;;;;;;;3.55;1.90;;;;;;;;;;5019588;28;20131;-67
2022/01/20 09:41:04;;;;;;;5.88;1.80;;;;;;;;;;5024099;28;20073;-66
2022/01/20 09:43:31;;;;;;;6.60;2.28;;;;;;;;;;5015951;28;20558;-67
2022/01/20 09:45:57;;;;;;;12.82;2.78;;;;;;;;;;5021400;28;20030;-67
2022/01/20 09:48:24;;;;;;;7.00;2.03;;;;;;;;;;5026998;28;20030;-66
2022/01/20 09:50:51;;;;;;;5.57;1.67;;;;;;;;;;5022962;28;20481;-67
2022/01/20 09:53:17;;;;;;;5.65;1.42;;;;;;;;;;5032072;28;20042;-68
2022/01/20 09:55:43;;;;;;;3.40;1.45;;;;;;;;;;5030411;28;20022;-66
2022/01/20 09:58:10;;;;;;;6.05;1.70;;;;;;;;;;5033069;28;20022;-67
2022/01/20 10:00:36;;;;;;;8.20;2.30;;;;;;;;;;5019392;28;20389;-68
2022/01/20 10:03:10;;;;;;;3.67;1.30;;;;;;;;;;5022981;28;20036;-58
2022/01/20 10:05:42;;;;;;;9.07;2.75;;;;;;;;;;5022756;28;20024;-63
2022/01/20 10:08:18;;;;;;;5.40;2.00;;;;;;;;;;5029099;28;20038;-55
2022/01/20 10:10:51;;;;;;;15.18;1.90;;;;;;;;;;5025069;28;20504;-56
2022/01/20 10:13:23;;;;;;;9.07;1.98;;;;;;;;;;5027217;28;20029;-55
2022/01/20 10:16:07;;;;;;;6.68;1.80;;;;;;;;;;5023293;28;20040;-58
2022/01/20 10:18:44;;;;;;;6.93;2.22;;;;;;;;;;5031620;28;20041;-56
2022/01/20 10:21:09;;;;;;;5.35;1.75;;;;;;;;;;5029489;28;20099;-55
2022/01/20 10:23:38;;;;;;;8.48;1.83;;;;;;;;;;5022619;28;20469;-64
2022/01/20 10:26:05;;;;;;;2.70;1.00;;;;;;;;;;5028372;28;20110;-59
2022/01/20 10:28:41;;;;;;;11.18;1.80;;;;;;;;;;5024088;28;20045;-66
2022/01/20 10:31:06;;;;;;;9.70;2.10;;;;;;;;;;5034343;28;20029;-61
2022/01/20 10:33:40;;;;;;;10.05;1.85;;;;;;;;;;5022254;28;20436;-60
2022/01/20 10:36:13;;;;;;;8.23;2.05;;;;;;;;;;5020905;28;20017;-53
2022/01/20 10:38:54;;;;;;;5.68;2.00;;;;;;;;;;5014933;28;20037;-62
2022/01/20 10:41:30;;;;;;;9.85;2.05;;;;;;;;;;5020777;28;20510;-59
2022/01/20 10:44:14;;;;;;;6.00;1.83;;;;;;;;;;5017857;28;20026;-63
2022/01/20 10:46:52;;;;;;;9.20;1.95;;;;;;;;;;5029680;28;20034;-56
2022/01/20 10:49:19;;;;;;;5.95;1.77;;;;;;;;;;5021181;28;20030;-58
2022/01/20 10:52:03;;;;;;;8.68;2.10;;;;;;;;;;5027381;28;20025;-64
2022/01/20 10:54:40;;;;;;;10.63;2.45;;;;;;;;;;5020247;28;20113;-68
2022/01/20 10:57:07;;;;;;;4.47;1.70;;;;;;;;;;5025824;28;20041;-62
2022/01/20 10:59:34;;;;;;;7.18;2.15;;;;;;;;;;5022160;28;20018;-67
2022/01/20 11:02:09;;;;;;;11.45;2.17;;;;;;;;;;5028788;28;20021;-67
2022/01/20 11:04:40;;;;;;;4.10;1.48;;;;;;;;;;5026443;28;20075;-67
2022/01/20 11:07:06;;;;;;;4.88;1.67;;;;;;;;;;5026626;28;20032;-66
2022/01/20 11:09:36;;;;;;;9.23;2.72;;;;;;;;;;5029160;28;20048;-65
2022/01/20 11:12:02;;;;;;;6.68;2.15;;;;;;;;;;5028206;28;20465;-67
2022/01/20 11:14:32;;;;;;;23.05;4.38;;;;;;;;;;5017309;28;20048;-67
2022/01/20 11:16:59;;;;;;;7.28;1.77;;;;;;;;;;5029967;28;20280;-66
2022/01/20 11:19:25;;;;;;;12.32;3.80;;;;;;;;;;5021038;28;20029;-55
2022/01/20 11:21:52;;;;;;;30.85;14.57;;;;;;;;;;5027752;28;20037;-66
2022/01/20 11:24:24;;;;;;;20.88;10.00;;;;;;;;;;5032860;28;20357;-66
2022/01/20 11:26:52;;;;;;;11.10;5.93;;;;;;;;;;5020564;28;20129;-59
2022/01/20 11:29:18;;;;;;;7.80;2.22;;;;;;;;;;5032310;28;20021;-68
2022/01/20 11:31:43;;;;;;;11.35;2.83;;;;;;;;;;5024457;28;20036;-68
2022/01/20 11:34:17;;;;;;;7.97;1.58;;;;;;;;;;5024913;28;20022;-65
2022/01/20 11:36:43;;;;;;;6.10;2.00;;;;;;;;;;5032174;28;20017;-68
2022/01/20 11:39:09;;;;;;;26.17;1.80;;;;;;;;;;5021867;28;20029;-66
2022/01/20 11:41:40;;;;;;;6.13;1.48;;;;;;;;;;5004074;28;20037;-68
2022/01/20 11:44:14;;;;;;;8.75;1.63;;;;;;;;;;5025595;28;20123;-68
2022/01/20 11:46:45;;;;;;;4.22;1.90;;;;;;;;;;5021953;28;20028;-64
2022/01/20 11:49:13;;;;;;;9.48;2.15;;;;;;;;;;5024559;28;20523;-62
2022/01/20 11:51:44;;;;;;;6.05;1.70;;;;;;;;;;5018213;28;20037;-54
2022/01/20 11:54:11;;;;;;;8.00;2.70;;;;;;;;;;5019697;28;20021;-60
2022/01/20 11:56:42;;;;;;;6.40;1.60;;;;;;;;;;5033049;28;20036;-68
2022/01/20 11:59:10;;;;;;;10.57;3.25;;;;;;;;;;5033106;28;20052;-67
2022/01/20 12:01:47;;;;;;;5.45;2.90;;;;;;;;;;5033617;28;20025;-66
2022/01/20 12:04:13;;;;;;;7.72;2.38;;;;;;;;;;5026890;28;20435;-56
2022/01/20 12:06:45;;;;;;;7.40;2.53;;;;;;;;;;5028818;28;20060;-63
2022/01/20 12:09:13;;;;;;;6.80;2.40;;;;;;;;;;5032252;28;20099;-69
2022/01/20 12:11:46;;;;;;;11.02;5.82;;;;;;;;;;5024857;28;20037;-57
2022/01/20 12:14:13;;;;;;;12.73;5.25;;;;;;;;;;5021111;28;20102;-67
2022/01/20 12:16:40;;;;;;;15.50;6.50;;;;;;;;;;5033049;28;20025;-63
2022/01/20 12:19:09;;;;;;;6.00;1.95;;;;;;;;;;5032961;28;20033;-68
2022/01/20 12:21:37;;;;;;;11.70;4.32;;;;;;;;;;5033099;28;20033;-63
2022/01/20 12:24:04;;;;;;;6.65;2.40;;;;;;;;;;5032774;28;20428;-63
2022/01/20 12:26:36;;;;;;;11.70;4.95;;;;;;;;;;5032199;28;20029;-58
2022/01/20 12:29:07;;;;;;;12.27;3.17;;;;;;;;;;5032401;28;20030;-68
2022/01/20 12:31:45;;;;;;;4.07;2.17;;;;;;;;;;5024100;28;20052;-68
2022/01/20 12:34:12;;;;;;;7.82;1.88;;;;;;;;;;5023823;28;20037;-56
2022/01/20 12:36:39;;;;;;;11.02;3.88;;;;;;;;;;5024529;28;20108;-67
2022/01/20 12:39:05;;;;;;;5.55;2.38;;;;;;;;;;5023970;28;20048;-63
2022/01/20 12:41:31;;;;;;;3.70;1.45;;;;;;;;;;5024084;28;20507;-65
2022/01/20 12:44:04;;;;;;;7.57;2.35;;;;;;;;;;5024413;28;20053;-57
2022/01/20 12:46:36;;;;;;;25.35;3.13;;;;;;;;;;5025581;28;20404;-64
2022/01/20 12:49:09;;;;;;;3.75;1.42;;;;;;;;;;5024043;28;20113;-57
2022/01/20 12:51:53;;;;;;;2.20;1.20;;;;;;;;;;5024596;28;20028;-65
2022/01/20 12:54:28;;;;;;;3.22;1.90;;;;;;;;;;5023601;28;20080;-68
2022/01/20 12:56:59;;;;;;;5.10;1.60;;;;;;;;;;5032208;28;20108;-67
2022/01/20 12:59:30;;;;;;;6.80;3.10;;;;;;;;;;5032424;28;20423;-66
2022/01/20 13:02:01;;;;;;;7.43;2.50;;;;;;;;;;5032405;28;20025;-63
2022/01/20 13:04:32;;;;;;;6.03;1.88;;;;;;;;;;5032204;28;20017;-65
2022/01/20 13:07:00;;;;;;;3.40;1.20;;;;;;;;;;5031611;28;20422;-67
2022/01/20 13:09:39;;;;;;;3.78;1.40;;;;;;;;;;5032133;28;20050;-66
2022/01/20 13:12:05;;;;;;;8.85;1.90;;;;;;;;;;5031360;28;20021;-58
2022/01/20 13:14:51;;;;;;;15.63;4.20;;;;;;;;;;5022387;28;20029;-58
2022/01/20 13:17:22;;;;;;;10.68;4.45;;;;;;;;;;5032077;28;20057;-56
2022/01/20 13:19:48;;;;;;;11.48;4.15;;;;;;;;;;5032044;28;20029;-56
2022/01/20 13:22:54;;;;;;;6.63;2.92;;;;;;;;;;5031861;28;20014;-58
2022/01/20 13:25:25;;;;;;;13.32;3.50;;;;;;;;;;5032000;28;20029;-61
2022/01/20 13:27:50;;;;;;;9.38;2.63;;;;;;;;;;5032334;28;20036;-61
2022/01/20 13:30:27;;;;;;;11.85;3.95;;;;;;;;;;5032119;28;20026;-55
2022/01/20 13:32:53;;;;;;;14.13;4.25;;;;;;;;;;5021040;28;20033;-54
2022/01/20 13:35:18;;;;;;;13.18;3.78;;;;;;;;;;5025252;28;20122;-61
2022/01/20 13:37:47;;;;;;;7.53;2.92;;;;;;;;;;5027132;28;20392;-61
2022/01/20 13:40:19;;;;;;;6.10;2.63;;;;;;;;;;5031981;28;20482;-58
2022/01/20 13:45:38;;;;;;;8.38;3.08;;;;;;;;;;4931529;29;20082;-57
2022/01/20 13:48:04;;;;;;;6.45;2.85;;;;;;;;;;4930168;29;20123;-55
2022/01/20 13:50:33;;;;;;;17.05;6.22;;;;;;;;;;4931576;29;20465;-55
2022/01/20 13:53:01;;;;;;;14.73;5.05;;;;;;;;;;4932510;29;20154;-54
2022/01/20 13:55:30;;;;;;;13.05;5.50;;;;;;;;;;4930312;29;20142;-59
2022/01/20 13:57:58;;;;;;;12.65;4.63;;;;;;;;;;4930235;29;20067;-56
2022/01/20 14:00:28;;;;;;;8.05;3.83;;;;;;;;;;4931421;29;20039;-58
2022/01/20 14:02:53;;;;;;;7.70;3.38;;;;;;;;;;4931006;29;20578;-55
2022/01/20 14:05:22;;;;;;;5.95;2.70;;;;;;;;;;4927304;29;20126;-61
2022/01/20 14:07:47;;;;;;;6.32;3.05;;;;;;;;;;4929435;29;20079;-57
2022/01/20 14:10:14;;;;;;;4.88;2.50;;;;;;;;;;4923138;29;20542;-58
2022/01/20 14:12:40;;;;;;;4.93;1.05;;;;;;;;;;4931860;29;20430;-59
2022/01/20 14:15:06;;;;;;;12.40;4.95;;;;;;;;;;4927519;29;20120;-53
2022/01/20 14:17:36;;;;;;;5.55;3.45;;;;;;;;;;4932163;29;20091;-56
2022/01/20 14:20:08;;;;;;;9.73;6.55;;;;;;;;;;4932185;29;20504;-58
2022/01/20 14:22:34;;;;;;;6.28;3.95;;;;;;;;;;4973069;28;20033;-56
2022/01/20 14:25:00;;;;;;;18.35;9.38;;;;;;;;;;5011842;28;20040;-54
2022/01/20 14:27:25;;;;;;;14.25;7.85;;;;;;;;;;5011858;28;20093;-56
2022/01/20 14:29:50;;;;;;;6.28;3.22;;;;;;;;;;5010807;28;20088;-58
2022/01/20 14:32:17;;;;;;;6.75;2.38;;;;;;;;;;5015468;28;20050;-59
2022/01/20 14:34:42;;;;;;;9.73;1.58;;;;;;;;;;5014973;28;20057;-55
2022/01/20 14:37:08;;;;;;;3.70;1.90;;;;;;;;;;5013729;28;20463;-56
2022/01/20 14:39:35;;;;;;;3.17;1.42;;;;;;;;;;5015298;28;20052;-55
2022/01/20 14:42:09;;;;;;;8.10;2.72;;;;;;;;;;5008960;28;20030;-54
2022/01/20 14:44:36;;;;;;;5.20;1.95;;;;;;;;;;5014959;28;20056;-54
2022/01/20 14:47:03;;;;;;;4.30;1.55;;;;;;;;;;5013505;28;20022;-57
2022/01/20 14:49:28;;;;;;;14.02;4.15;;;;;;;;;;5014242;28;20054;-55
2022/01/20 14:51:53;;;;;;;39.65;3.97;;;;;;;;;;5014577;28;20060;-55
2022/01/20 14:54:19;;;;;;;46.75;12.57;;;;;;;;;;5013246;28;20030;-60
2022/01/20 14:56:45;;;;;;;7.78;2.72;;;;;;;;;;5014611;28;20026;-54
2022/01/20 14:59:10;;;;;;;9.32;3.40;;;;;;;;;;5014947;28;20096;-64
2022/01/20 15:01:37;;;;;;;7.68;3.50;;;;;;;;;;5014383;28;20037;-57
2022/01/20 15:04:04;;;;;;;6.10;2.90;;;;;;;;;;5014705;28;20037;-59
2022/01/20 15:06:29;;;;;;;7.22;3.85;;;;;;;;;;5014837;28;20109;-63
2022/01/20 15:08:55;;;;;;;14.82;8.98;;;;;;;;;;5013344;28;20168;-65
2022/01/20 15:11:21;;;;;;;14.50;7.85;;;;;;;;;;5014761;28;20057;-63
2022/01/20 15:13:46;;;;;;;5.32;2.10;;;;;;;;;;5014575;28;20473;-62
2022/01/20 15:16:11;;;;;;;5.50;2.80;;;;;;;;;;5014560;28;20033;-61
2022/01/20 15:18:37;;;;;;;6.57;2.30;;;;;;;;;;5014358;28;20481;-58
2022/01/20 15:21:02;;;;;;;4.80;2.08;;;;;;;;;;5014176;28;20358;-58
2022/01/20 15:23:28;;;;;;;5.40;2.47;;;;;;;;;;5014365;28;20018;-61
2022/01/20 15:25:54;;;;;;;6.25;2.25;;;;;;;;;;5013982;28;20121;-64
2022/01/20 15:28:20;;;;;;;7.25;1.15;;;;;;;;;;5014340;28;20026;-57
2022/01/20 15:30:45;;;;;;;6.15;2.13;;;;;;;;;;5014028;28;20080;-65
2022/01/20 15:33:11;;;;;;;5.97;3.28;;;;;;;;;;5014069;28;20496;-61
2022/01/20 15:35:36;;;;;;;7.75;3.40;;;;;;;;;;5014435;28;20494;-58
2022/01/20 15:38:02;;;;;;;5.38;3.10;;;;;;;;;;5014025;28;20018;-55
2022/01/20 15:40:28;;;;;;;9.77;3.88;;;;;;;;;;5013779;28;20434;-59
2022/01/20 15:42:53;;;;;;;6.03;4.07;;;;;;;;;;5012766;28;20112;-61
2022/01/20 15:45:19;;;;;;;8.88;4.82;;;;;;;;;;5013596;28;20034;-64
2022/01/20 15:47:44;;;;;;;7.97;3.10;;;;;;;;;;5012228;28;20053;-63
2022/01/20 15:50:11;;;;;;;7.80;4.20;;;;;;;;;;5013713;28;20033;-66